sensor_id;sensor_type;location;lat;lon;timestamp;temperature;humidity
37974;DHT22;23796;51.458;7.000;2023-03-16T00:00:46;4.70;99.90
37974;DHT22;23796;51.458;7.000;2023-03-16T00:03:13;4.80;99.90
37974;DHT22;23796;51.458;7.000;2023-03-16T00:05:49;4.70;99.90
37974;DHT22;23796;51.458;7.000;2023-03-16T00:08:18;4.70;99.90
37974;DHT22;23796;51.458;7.000;2023-03-16T00:10:45;4.80;99.90
37974;DHT22;23796;51.458;7.000;2023-03-16T00:13:17;4.80;99.90
37974;DHT22;23796;51.458;7.000;2023-03-16T00:15:53;4.70;99.90
37974;DHT22;23796;51.458;7.000;2023-03-16T00:18:20;4.70;99.90
37974;DHT22;23796;51.458;7.000;2023-03-16T00:20:56;4.70;99.90
37974;DHT22;23796;51.458;7.000;2023-03-16T00:23:22;4.70;99.90
37974;DHT22;23796;51.458;7.000;2023-03-16T00:25:55;4.80;99.90
37974;DHT22;23796;51.458;7.000;2023-03-16T00:28:25;4.80;99.90
37974;DHT22;23796;51.458;7.000;2023-03-16T00:30:54;4.80;99.90
37974;DHT22;23796;51.458;7.000;2023-03-16T00:33:31;4.80;99.90
37974;DHT22;23796;51.458;7.000;2023-03-16T00:36:03;4.80;99.90
37974;DHT22;23796;51.458;7.000;2023-03-16T00:38:31;4.80;99.90
37974;DHT22;23796;51.458;7.000;2023-03-16T00:40:59;4.80;99.90
37974;DHT22;23796;51.458;7.000;2023-03-16T00:43:28;4.80;99.90
37974;DHT22;23796;51.458;7.000;2023-03-16T00:45:59;4.80;99.90
37974;DHT22;23796;51.458;7.000;2023-03-16T00:48:31;4.80;99.90
37974;DHT22;23796;51.458;7.000;2023-03-16T00:51:02;4.80;99.90
37974;DHT22;23796;51.458;7.000;2023-03-16T00:53:35;4.80;99.90
37974;DHT22;23796;51.458;7.000;2023-03-16T00:56:01;4.70;99.90
37974;DHT22;23796;51.458;7.000;2023-03-16T00:58:31;4.70;99.90
37974;DHT22;23796;51.458;7.000;2023-03-16T01:01:13;4.80;99.90
37974;DHT22;23796;51.458;7.000;2023-03-16T01:03:39;4.80;99.90
37974;DHT22;23796;51.458;7.000;2023-03-16T01:06:07;4.70;99.90
37974;DHT22;23796;51.458;7.000;2023-03-16T01:08:37;4.70;99.90
37974;DHT22;23796;51.458;7.000;2023-03-16T01:11:10;4.80;99.90
37974;DHT22;23796;51.458;7.000;2023-03-16T01:13:36;4.80;99.90
37974;DHT22;23796;51.458;7.000;2023-03-16T01:16:05;4.80;99.90
37974;DHT22;23796;51.458;7.000;2023-03-16T01:18:31;4.80;99.90
37974;DHT22;23796;51.458;7.000;2023-03-16T01:21:04;4.80;99.90
37974;DHT22;23796;51.458;7.000;2023-03-16T01:23:30;4.90;99.90
37974;DHT22;23796;51.458;7.000;2023-03-16T01:25:59;4.90;99.90
37974;DHT22;23796;51.458;7.000;2023-03-16T01:28:26;4.90;99.90
37974;DHT22;23796;51.458;7.000;2023-03-16T01:30:54;5.00;99.90
37974;DHT22;23796;51.458;7.000;2023-03-16T01:33:29;4.90;99.90
37974;DHT22;23796;51.458;7.000;2023-03-16T01:35:58;5.00;99.90
37974;DHT22;23796;51.458;7.000;2023-03-16T01:38:24;5.00;99.90
37974;DHT22;23796;51.458;7.000;2023-03-16T01:40:52;5.00;99.90
37974;DHT22;23796;51.458;7.000;2023-03-16T01:43:20;5.00;99.90
37974;DHT22;23796;51.458;7.000;2023-03-16T01:51:06;4.90;99.90
37974;DHT22;23796;51.458;7.000;2023-03-16T01:53:34;4.90;99.90
37974;DHT22;23796;51.458;7.000;2023-03-16T01:56:07;4.90;99.90
37974;DHT22;23796;51.458;7.000;2023-03-16T01:58:34;4.90;99.90
37974;DHT22;23796;51.458;7.000;2023-03-16T02:01:04;4.90;99.90
37974;DHT22;23796;51.458;7.000;2023-03-16T02:03:30;4.90;99.90
37974;DHT22;23796;51.458;7.000;2023-03-16T02:06:03;4.90;99.90
37974;DHT22;23796;51.458;7.000;2023-03-16T02:08:35;4.90;99.90
37974;DHT22;23796;51.458;7.000;2023-03-16T02:11:05;5.00;99.90
37974;DHT22;23796;51.458;7.000;2023-03-16T02:13:35;5.00;99.90
37974;DHT22;23796;51.458;7.000;2023-03-16T02:16:04;5.00;99.90
37974;DHT22;23796;51.458;7.000;2023-03-16T02:18:30;5.00;99.90
37974;DHT22;23796;51.458;7.000;2023-03-16T02:21:16;5.00;99.90
37974;DHT22;23796;51.458;7.000;2023-03-16T02:23:44;5.00;99.90
37974;DHT22;23796;51.458;7.000;2023-03-16T02:29:09;5.00;99.90
37974;DHT22;23796;51.458;7.000;2023-03-16T02:31:43;5.00;99.90
37974;DHT22;23796;51.458;7.000;2023-03-16T02:34:09;5.00;99.90
37974;DHT22;23796;51.458;7.000;2023-03-16T02:36:41;5.00;99.90
37974;DHT22;23796;51.458;7.000;2023-03-16T02:39:10;5.00;99.90
37974;DHT22;23796;51.458;7.000;2023-03-16T02:41:36;5.00;99.90
37974;DHT22;23796;51.458;7.000;2023-03-16T02:46:38;5.10;99.90
37974;DHT22;23796;51.458;7.000;2023-03-16T02:49:22;5.10;99.90
37974;DHT22;23796;51.458;7.000;2023-03-16T02:51:49;5.10;99.90
37974;DHT22;23796;51.458;7.000;2023-03-16T02:54:15;5.10;99.90
37974;DHT22;23796;51.458;7.000;2023-03-16T02:56:41;5.00;99.90
37974;DHT22;23796;51.458;7.000;2023-03-16T02:59:06;5.10;99.90
37974;DHT22;23796;51.458;7.000;2023-03-16T03:01:34;5.10;99.90
37974;DHT22;23796;51.458;7.000;2023-03-16T03:04:02;5.10;99.90
37974;DHT22;23796;51.458;7.000;2023-03-16T03:06:30;5.10;99.90
37974;DHT22;23796;51.458;7.000;2023-03-16T03:08:59;5.10;99.90
37974;DHT22;23796;51.458;7.000;2023-03-16T03:11:24;5.10;99.90
37974;DHT22;23796;51.458;7.000;2023-03-16T03:13:53;5.10;99.90
37974;DHT22;23796;51.458;7.000;2023-03-16T03:16:21;5.10;99.90
37974;DHT22;23796;51.458;7.000;2023-03-16T03:18:47;5.10;99.90
37974;DHT22;23796;51.458;7.000;2023-03-16T03:21:17;5.10;99.90
37974;DHT22;23796;51.458;7.000;2023-03-16T03:23:42;5.10;99.90
37974;DHT22;23796;51.458;7.000;2023-03-16T03:26:11;5.10;99.90
37974;DHT22;23796;51.458;7.000;2023-03-16T03:28:38;5.10;99.90
37974;DHT22;23796;51.458;7.000;2023-03-16T03:31:04;5.10;99.90
37974;DHT22;23796;51.458;7.000;2023-03-16T03:33:29;5.10;99.90
37974;DHT22;23796;51.458;7.000;2023-03-16T03:35:58;5.10;99.90
37974;DHT22;23796;51.458;7.000;2023-03-16T03:38:26;5.10;99.90
37974;DHT22;23796;51.458;7.000;2023-03-16T03:40:52;5.20;99.90
37974;DHT22;23796;51.458;7.000;2023-03-16T03:43:19;5.10;99.90
37974;DHT22;23796;51.458;7.000;2023-03-16T03:45:47;5.10;99.90
37974;DHT22;23796;51.458;7.000;2023-03-16T03:48:18;5.10;99.90
37974;DHT22;23796;51.458;7.000;2023-03-16T03:50:43;5.20;99.90
37974;DHT22;23796;51.458;7.000;2023-03-16T03:53:09;5.20;99.90
37974;DHT22;23796;51.458;7.000;2023-03-16T03:55:34;5.20;99.90
37974;DHT22;23796;51.458;7.000;2023-03-16T03:58:00;5.20;99.90
37974;DHT22;23796;51.458;7.000;2023-03-16T04:00:27;5.20;99.90
37974;DHT22;23796;51.458;7.000;2023-03-16T04:02:53;5.20;99.90
37974;DHT22;23796;51.458;7.000;2023-03-16T04:05:19;5.20;99.90
37974;DHT22;23796;51.458;7.000;2023-03-16T04:07:44;5.20;99.90
37974;DHT22;23796;51.458;7.000;2023-03-16T04:10:13;5.20;99.90
37974;DHT22;23796;51.458;7.000;2023-03-16T04:12:39;5.20;99.90
37974;DHT22;23796;51.458;7.000;2023-03-16T04:15:07;5.20;99.90
37974;DHT22;23796;51.458;7.000;2023-03-16T04:17:33;5.20;99.90
37974;DHT22;23796;51.458;7.000;2023-03-16T04:20:00;5.20;99.90
37974;DHT22;23796;51.458;7.000;2023-03-16T04:22:26;5.20;99.90
37974;DHT22;23796;51.458;7.000;2023-03-16T04:24:54;5.20;99.90
37974;DHT22;23796;51.458;7.000;2023-03-16T04:27:22;5.30;99.90
37974;DHT22;23796;51.458;7.000;2023-03-16T04:29:47;5.30;99.90
37974;DHT22;23796;51.458;7.000;2023-03-16T04:32:13;5.20;99.90
37974;DHT22;23796;51.458;7.000;2023-03-16T04:34:39;5.30;99.90
37974;DHT22;23796;51.458;7.000;2023-03-16T04:37:08;5.20;99.90
37974;DHT22;23796;51.458;7.000;2023-03-16T04:39:33;5.20;99.90
37974;DHT22;23796;51.458;7.000;2023-03-16T04:42:01;5.20;99.90
37974;DHT22;23796;51.458;7.000;2023-03-16T04:44:29;5.20;99.90
37974;DHT22;23796;51.458;7.000;2023-03-16T04:46:55;5.10;99.90
37974;DHT22;23796;51.458;7.000;2023-03-16T04:49:20;5.10;99.90
37974;DHT22;23796;51.458;7.000;2023-03-16T04:51:46;5.10;99.90
37974;DHT22;23796;51.458;7.000;2023-03-16T04:54:11;5.10;99.90
37974;DHT22;23796;51.458;7.000;2023-03-16T04:56:39;5.10;99.90
37974;DHT22;23796;51.458;7.000;2023-03-16T04:59:05;5.10;99.90
37974;DHT22;23796;51.458;7.000;2023-03-16T05:01:31;5.10;99.90
37974;DHT22;23796;51.458;7.000;2023-03-16T05:03:57;5.10;99.90
37974;DHT22;23796;51.458;7.000;2023-03-16T05:06:22;5.20;99.90
37974;DHT22;23796;51.458;7.000;2023-03-16T05:08:48;5.20;99.90
37974;DHT22;23796;51.458;7.000;2023-03-16T05:11:18;5.20;99.90
37974;DHT22;23796;51.458;7.000;2023-03-16T05:13:44;5.20;99.90
37974;DHT22;23796;51.458;7.000;2023-03-16T05:16:10;5.30;99.90
37974;DHT22;23796;51.458;7.000;2023-03-16T05:18:36;5.30;99.90
37974;DHT22;23796;51.458;7.000;2023-03-16T05:21:01;5.30;99.90
37974;DHT22;23796;51.458;7.000;2023-03-16T05:23:27;5.40;99.90
37974;DHT22;23796;51.458;7.000;2023-03-16T05:25:54;5.50;99.90
37974;DHT22;23796;51.458;7.000;2023-03-16T05:28:24;5.50;99.90
37974;DHT22;23796;51.458;7.000;2023-03-16T05:30:49;5.50;99.90
37974;DHT22;23796;51.458;7.000;2023-03-16T05:33:16;5.50;99.90
37974;DHT22;23796;51.458;7.000;2023-03-16T05:35:41;5.50;99.90
37974;DHT22;23796;51.458;7.000;2023-03-16T05:38:07;5.50;99.90
37974;DHT22;23796;51.458;7.000;2023-03-16T05:40:34;5.60;99.90
37974;DHT22;23796;51.458;7.000;2023-03-16T05:43:01;5.60;99.90
37974;DHT22;23796;51.458;7.000;2023-03-16T05:45:29;5.60;99.90
37974;DHT22;23796;51.458;7.000;2023-03-16T05:47:55;5.60;99.90
37974;DHT22;23796;51.458;7.000;2023-03-16T05:50:23;5.60;99.90
37974;DHT22;23796;51.458;7.000;2023-03-16T05:52:50;5.60;99.90
37974;DHT22;23796;51.458;7.000;2023-03-16T05:55:16;5.60;99.90
37974;DHT22;23796;51.458;7.000;2023-03-16T05:57:42;5.60;99.90
37974;DHT22;23796;51.458;7.000;2023-03-16T06:00:10;5.60;99.90
37974;DHT22;23796;51.458;7.000;2023-03-16T06:02:44;5.60;99.90
37974;DHT22;23796;51.458;7.000;2023-03-16T06:05:14;5.60;99.90
37974;DHT22;23796;51.458;7.000;2023-03-16T06:07:40;5.50;99.90
37974;DHT22;23796;51.458;7.000;2023-03-16T06:10:07;5.50;99.90
37974;DHT22;23796;51.458;7.000;2023-03-16T06:12:36;5.50;99.90
37974;DHT22;23796;51.458;7.000;2023-03-16T06:15:03;5.40;99.90
37974;DHT22;23796;51.458;7.000;2023-03-16T06:17:32;5.50;99.90
37974;DHT22;23796;51.458;7.000;2023-03-16T06:19:57;5.50;99.90
37974;DHT22;23796;51.458;7.000;2023-03-16T06:22:23;5.50;99.90
37974;DHT22;23796;51.458;7.000;2023-03-16T06:24:50;5.60;99.90
37974;DHT22;23796;51.458;7.000;2023-03-16T06:27:15;5.60;99.90
37974;DHT22;23796;51.458;7.000;2023-03-16T06:29:42;5.70;99.90
37974;DHT22;23796;51.458;7.000;2023-03-16T06:32:10;5.70;99.90
37974;DHT22;23796;51.458;7.000;2023-03-16T06:34:38;5.80;99.90
37974;DHT22;23796;51.458;7.000;2023-03-16T06:37:04;5.90;99.90
37974;DHT22;23796;51.458;7.000;2023-03-16T06:39:30;5.90;99.90
37974;DHT22;23796;51.458;7.000;2023-03-16T06:41:56;5.90;99.90
37974;DHT22;23796;51.458;7.000;2023-03-16T06:44:22;5.90;99.90
37974;DHT22;23796;51.458;7.000;2023-03-16T06:46:50;5.90;99.90
37974;DHT22;23796;51.458;7.000;2023-03-16T06:49:18;5.90;99.90
37974;DHT22;23796;51.458;7.000;2023-03-16T06:51:46;6.00;99.90
37974;DHT22;23796;51.458;7.000;2023-03-16T06:54:12;6.00;99.90
37974;DHT22;23796;51.458;7.000;2023-03-16T06:56:37;6.00;99.90
37974;DHT22;23796;51.458;7.000;2023-03-16T06:59:03;6.00;99.90
37974;DHT22;23796;51.458;7.000;2023-03-16T07:01:28;6.00;99.90
37974;DHT22;23796;51.458;7.000;2023-03-16T07:03:54;6.10;99.90
37974;DHT22;23796;51.458;7.000;2023-03-16T07:06:20;6.10;99.90
37974;DHT22;23796;51.458;7.000;2023-03-16T07:08:46;6.10;99.90
37974;DHT22;23796;51.458;7.000;2023-03-16T07:11:11;6.20;99.90
37974;DHT22;23796;51.458;7.000;2023-03-16T07:13:39;6.20;99.90
37974;DHT22;23796;51.458;7.000;2023-03-16T07:16:07;6.20;99.90
37974;DHT22;23796;51.458;7.000;2023-03-16T07:18:33;6.40;99.90
37974;DHT22;23796;51.458;7.000;2023-03-16T07:21:01;6.40;99.90
37974;DHT22;23796;51.458;7.000;2023-03-16T07:23:26;6.50;99.90
37974;DHT22;23796;51.458;7.000;2023-03-16T07:25:52;6.60;99.90
37974;DHT22;23796;51.458;7.000;2023-03-16T07:28:20;6.60;99.90
37974;DHT22;23796;51.458;7.000;2023-03-16T07:30:46;6.60;99.90
37974;DHT22;23796;51.458;7.000;2023-03-16T07:33:12;6.70;99.90
37974;DHT22;23796;51.458;7.000;2023-03-16T07:35:42;6.70;99.90
37974;DHT22;23796;51.458;7.000;2023-03-16T07:38:08;6.70;99.90
37974;DHT22;23796;51.458;7.000;2023-03-16T07:40:39;6.80;99.90
37974;DHT22;23796;51.458;7.000;2023-03-16T07:43:06;6.90;99.90
37974;DHT22;23796;51.458;7.000;2023-03-16T07:45:31;7.00;99.90
37974;DHT22;23796;51.458;7.000;2023-03-16T07:47:57;7.00;99.90
37974;DHT22;23796;51.458;7.000;2023-03-16T07:50:23;7.20;99.90
37974;DHT22;23796;51.458;7.000;2023-03-16T07:52:51;7.30;99.90
37974;DHT22;23796;51.458;7.000;2023-03-16T07:55:19;7.40;99.90
37974;DHT22;23796;51.458;7.000;2023-03-16T07:57:48;7.50;99.90
37974;DHT22;23796;51.458;7.000;2023-03-16T08:00:14;7.60;99.90
37974;DHT22;23796;51.458;7.000;2023-03-16T08:02:42;7.60;99.90
37974;DHT22;23796;51.458;7.000;2023-03-16T08:05:08;7.60;99.90
37974;DHT22;23796;51.458;7.000;2023-03-16T08:07:35;7.60;99.90
37974;DHT22;23796;51.458;7.000;2023-03-16T08:10:01;7.60;99.90
37974;DHT22;23796;51.458;7.000;2023-03-16T08:12:28;7.60;99.90
37974;DHT22;23796;51.458;7.000;2023-03-16T08:14:54;7.70;99.90
37974;DHT22;23796;51.458;7.000;2023-03-16T08:17:20;7.70;99.90
37974;DHT22;23796;51.458;7.000;2023-03-16T08:19:46;7.70;99.90
37974;DHT22;23796;51.458;7.000;2023-03-16T08:22:11;7.70;99.90
37974;DHT22;23796;51.458;7.000;2023-03-16T08:24:37;7.60;99.90
37974;DHT22;23796;51.458;7.000;2023-03-16T08:27:03;7.60;99.90
37974;DHT22;23796;51.458;7.000;2023-03-16T08:29:31;7.60;99.90
37974;DHT22;23796;51.458;7.000;2023-03-16T08:31:59;7.60;99.90
37974;DHT22;23796;51.458;7.000;2023-03-16T08:34:26;7.60;99.90
37974;DHT22;23796;51.458;7.000;2023-03-16T08:36:51;7.60;99.90
37974;DHT22;23796;51.458;7.000;2023-03-16T08:39:18;7.60;99.90
37974;DHT22;23796;51.458;7.000;2023-03-16T08:41:44;7.70;99.90
37974;DHT22;23796;51.458;7.000;2023-03-16T08:44:11;7.60;99.90
37974;DHT22;23796;51.458;7.000;2023-03-16T08:46:38;7.60;99.90
37974;DHT22;23796;51.458;7.000;2023-03-16T08:49:04;7.60;99.90
37974;DHT22;23796;51.458;7.000;2023-03-16T08:51:31;7.60;99.90
37974;DHT22;23796;51.458;7.000;2023-03-16T08:53:57;7.60;99.90
37974;DHT22;23796;51.458;7.000;2023-03-16T08:56:24;7.70;99.90
37974;DHT22;23796;51.458;7.000;2023-03-16T08:58:50;7.70;99.90
37974;DHT22;23796;51.458;7.000;2023-03-16T09:01:16;7.60;99.90
37974;DHT22;23796;51.458;7.000;2023-03-16T09:03:43;7.60;99.90
37974;DHT22;23796;51.458;7.000;2023-03-16T09:06:14;7.60;99.90
37974;DHT22;23796;51.458;7.000;2023-03-16T09:08:40;7.50;99.90
37974;DHT22;23796;51.458;7.000;2023-03-16T09:11:10;7.60;99.90
37974;DHT22;23796;51.458;7.000;2023-03-16T09:13:41;7.60;99.90
37974;DHT22;23796;51.458;7.000;2023-03-16T09:16:09;7.60;99.90
37974;DHT22;23796;51.458;7.000;2023-03-16T09:18:38;7.60;99.90
37974;DHT22;23796;51.458;7.000;2023-03-16T09:21:06;7.80;99.90
37974;DHT22;23796;51.458;7.000;2023-03-16T09:23:33;7.80;99.90
37974;DHT22;23796;51.458;7.000;2023-03-16T09:26:00;7.90;99.90
37974;DHT22;23796;51.458;7.000;2023-03-16T09:28:28;8.10;99.90
37974;DHT22;23796;51.458;7.000;2023-03-16T09:30:54;8.20;99.90
37974;DHT22;23796;51.458;7.000;2023-03-16T09:33:21;8.40;99.90
37974;DHT22;23796;51.458;7.000;2023-03-16T09:35:52;8.50;99.90
37974;DHT22;23796;51.458;7.000;2023-03-16T09:38:18;8.60;99.90
37974;DHT22;23796;51.458;7.000;2023-03-16T09:41:02;8.70;99.90
37974;DHT22;23796;51.458;7.000;2023-03-16T09:46:40;8.70;99.90
37974;DHT22;23796;51.458;7.000;2023-03-16T09:49:10;8.60;99.90
37974;DHT22;23796;51.458;7.000;2023-03-16T09:52:03;8.60;99.90
37974;DHT22;23796;51.458;7.000;2023-03-16T09:54:38;8.80;99.90
37974;DHT22;23796;51.458;7.000;2023-03-16T09:57:25;8.80;99.90
37974;DHT22;23796;51.458;7.000;2023-03-16T09:59:58;8.80;99.90
37974;DHT22;23796;51.458;7.000;2023-03-16T10:05:35;8.90;99.90
37974;DHT22;23796;51.458;7.000;2023-03-16T10:13:52;9.40;99.90
37974;DHT22;23796;51.458;7.000;2023-03-16T10:16:34;9.50;99.90
37974;DHT22;23796;51.458;7.000;2023-03-16T10:21:43;9.40;99.90
37974;DHT22;23796;51.458;7.000;2023-03-16T10:24:22;9.50;99.90
37974;DHT22;23796;51.458;7.000;2023-03-16T10:26:56;9.50;99.90
37974;DHT22;23796;51.458;7.000;2023-03-16T10:29:28;9.60;99.90
37974;DHT22;23796;51.458;7.000;2023-03-16T10:32:04;9.60;99.90
37974;DHT22;23796;51.458;7.000;2023-03-16T10:34:35;9.70;99.90
37974;DHT22;23796;51.458;7.000;2023-03-16T10:37:04;9.50;99.90
37974;DHT22;23796;51.458;7.000;2023-03-16T10:39:36;9.50;99.90
37974;DHT22;23796;51.458;7.000;2023-03-16T10:42:16;9.60;99.90
37974;DHT22;23796;51.458;7.000;2023-03-16T10:44:43;9.50;99.90
37974;DHT22;23796;51.458;7.000;2023-03-16T10:47:30;9.70;99.90
37974;DHT22;23796;51.458;7.000;2023-03-16T10:49:56;9.70;99.90
37974;DHT22;23796;51.458;7.000;2023-03-16T10:52:32;9.80;99.90
37974;DHT22;23796;51.458;7.000;2023-03-16T10:57:39;9.90;99.90
37974;DHT22;23796;51.458;7.000;2023-03-16T11:02:34;10.10;99.90
37974;DHT22;23796;51.458;7.000;2023-03-16T11:08:01;10.40;99.90
37974;DHT22;23796;51.458;7.000;2023-03-16T11:10:37;10.50;99.90
37974;DHT22;23796;51.458;7.000;2023-03-16T11:13:15;10.60;99.90
37974;DHT22;23796;51.458;7.000;2023-03-16T11:16:13;10.70;99.90
37974;DHT22;23796;51.458;7.000;2023-03-16T11:18:47;10.60;99.90
37974;DHT22;23796;51.458;7.000;2023-03-16T11:21:20;10.90;99.90
37974;DHT22;23796;51.458;7.000;2023-03-16T11:23:53;10.90;99.90
37974;DHT22;23796;51.458;7.000;2023-03-16T11:26:28;11.00;99.90
37974;DHT22;23796;51.458;7.000;2023-03-16T11:29:04;11.10;99.90
37974;DHT22;23796;51.458;7.000;2023-03-16T11:34:20;11.20;99.90
37974;DHT22;23796;51.458;7.000;2023-03-16T11:36:50;11.20;99.90
37974;DHT22;23796;51.458;7.000;2023-03-16T11:39:29;11.20;99.90
37974;DHT22;23796;51.458;7.000;2023-03-16T11:42:19;11.40;99.90
37974;DHT22;23796;51.458;7.000;2023-03-16T11:45:20;11.50;99.90
37974;DHT22;23796;51.458;7.000;2023-03-16T11:47:57;11.50;99.90
37974;DHT22;23796;51.458;7.000;2023-03-16T11:53:10;11.70;99.90
37974;DHT22;23796;51.458;7.000;2023-03-16T12:18:25;12.10;99.90
37974;DHT22;23796;51.458;7.000;2023-03-16T12:20:54;12.20;99.90
37974;DHT22;23796;51.458;7.000;2023-03-16T12:23:26;12.40;99.90
37974;DHT22;23796;51.458;7.000;2023-03-16T12:25:56;12.50;99.90
37974;DHT22;23796;51.458;7.000;2023-03-16T12:28:26;12.50;99.70
37974;DHT22;23796;51.458;7.000;2023-03-16T12:31:16;12.60;99.60
37974;DHT22;23796;51.458;7.000;2023-03-16T12:34:03;12.40;99.40
37974;DHT22;23796;51.458;7.000;2023-03-16T12:39:34;12.50;99.60
37974;DHT22;23796;51.458;7.000;2023-03-16T12:49:49;12.20;99.30
37974;DHT22;23796;51.458;7.000;2023-03-16T12:52:16;12.20;99.60
37974;DHT22;23796;51.458;7.000;2023-03-16T12:54:53;12.20;99.50
37974;DHT22;23796;51.458;7.000;2023-03-16T12:57:23;12.20;99.40
37974;DHT22;23796;51.458;7.000;2023-03-16T12:59:55;12.20;99.50
37974;DHT22;23796;51.458;7.000;2023-03-16T13:05:10;12.50;99.60
37974;DHT22;23796;51.458;7.000;2023-03-16T13:07:36;12.40;99.80
37974;DHT22;23796;51.458;7.000;2023-03-16T13:10:14;12.50;99.40
37974;DHT22;23796;51.458;7.000;2023-03-16T13:12:41;12.50;99.60
37974;DHT22;23796;51.458;7.000;2023-03-16T13:17:48;12.50;99.20
37974;DHT22;23796;51.458;7.000;2023-03-16T13:20:30;12.50;99.50
37974;DHT22;23796;51.458;7.000;2023-03-16T13:28:53;12.50;99.40
37974;DHT22;23796;51.458;7.000;2023-03-16T13:31:40;12.40;99.60
37974;DHT22;23796;51.458;7.000;2023-03-16T13:34:13;12.40;99.80
37974;DHT22;23796;51.458;7.000;2023-03-16T13:36:40;12.40;99.90
37974;DHT22;23796;51.458;7.000;2023-03-16T13:39:20;12.30;99.80
37974;DHT22;23796;51.458;7.000;2023-03-16T13:41:57;12.30;99.90
37974;DHT22;23796;51.458;7.000;2023-03-16T13:44:27;12.30;99.90
37974;DHT22;23796;51.458;7.000;2023-03-16T13:46:52;12.40;99.90
37974;DHT22;23796;51.458;7.000;2023-03-16T13:49:18;12.40;99.90
37974;DHT22;23796;51.458;7.000;2023-03-16T13:51:45;12.50;99.90
37974;DHT22;23796;51.458;7.000;2023-03-16T13:54:24;12.60;99.90
37974;DHT22;23796;51.458;7.000;2023-03-16T13:56:54;12.60;99.90
37974;DHT22;23796;51.458;7.000;2023-03-16T13:59:20;12.60;99.90
37974;DHT22;23796;51.458;7.000;2023-03-16T14:01:46;12.50;99.90
37974;DHT22;23796;51.458;7.000;2023-03-16T14:04:15;12.40;99.90
37974;DHT22;23796;51.458;7.000;2023-03-16T14:06:56;12.50;99.90
37974;DHT22;23796;51.458;7.000;2023-03-16T14:09:25;12.50;99.90
37974;DHT22;23796;51.458;7.000;2023-03-16T14:11:53;12.60;99.90
37974;DHT22;23796;51.458;7.000;2023-03-16T14:16:58;12.50;99.90
37974;DHT22;23796;51.458;7.000;2023-03-16T14:19:26;12.60;99.90
37974;DHT22;23796;51.458;7.000;2023-03-16T14:22:01;12.70;99.90
37974;DHT22;23796;51.458;7.000;2023-03-16T14:24:36;12.80;99.90
37974;DHT22;23796;51.458;7.000;2023-03-16T14:27:28;12.90;99.90
37974;DHT22;23796;51.458;7.000;2023-03-16T14:30:12;13.10;99.90
37974;DHT22;23796;51.458;7.000;2023-03-16T14:32:40;13.10;99.90
37974;DHT22;23796;51.458;7.000;2023-03-16T14:35:13;13.20;99.60
37974;DHT22;23796;51.458;7.000;2023-03-16T14:37:40;13.20;99.60
37974;DHT22;23796;51.458;7.000;2023-03-16T14:40:31;13.30;99.60
37974;DHT22;23796;51.458;7.000;2023-03-16T14:42:59;13.30;99.70
37974;DHT22;23796;51.458;7.000;2023-03-16T14:45:33;13.30;99.70
37974;DHT22;23796;51.458;7.000;2023-03-16T14:48:15;13.40;99.80
37974;DHT22;23796;51.458;7.000;2023-03-16T14:51:00;13.30;99.60
37974;DHT22;23796;51.458;7.000;2023-03-16T14:53:27;13.20;99.70
37974;DHT22;23796;51.458;7.000;2023-03-16T14:55:57;13.20;99.80
37974;DHT22;23796;51.458;7.000;2023-03-16T14:58:23;13.20;99.60
37974;DHT22;23796;51.458;7.000;2023-03-16T15:00:51;13.10;99.70
37974;DHT22;23796;51.458;7.000;2023-03-16T15:03:27;13.10;99.60
37974;DHT22;23796;51.458;7.000;2023-03-16T15:05:54;13.10;99.70
37974;DHT22;23796;51.458;7.000;2023-03-16T15:08:27;13.00;99.90
37974;DHT22;23796;51.458;7.000;2023-03-16T15:11:03;13.00;99.80
37974;DHT22;23796;51.458;7.000;2023-03-16T15:13:31;12.90;99.90
37974;DHT22;23796;51.458;7.000;2023-03-16T15:16:10;12.90;99.90
37974;DHT22;23796;51.458;7.000;2023-03-16T15:18:37;12.90;99.90
37974;DHT22;23796;51.458;7.000;2023-03-16T15:21:09;12.90;99.90
37974;DHT22;23796;51.458;7.000;2023-03-16T15:23:40;12.90;99.90
37974;DHT22;23796;51.458;7.000;2023-03-16T15:26:08;12.90;99.90
37974;DHT22;23796;51.458;7.000;2023-03-16T15:28:37;12.90;99.90
37974;DHT22;23796;51.458;7.000;2023-03-16T15:31:03;12.90;99.90
37974;DHT22;23796;51.458;7.000;2023-03-16T15:33:29;12.90;99.80
37974;DHT22;23796;51.458;7.000;2023-03-16T15:35:58;12.90;99.60
37974;DHT22;23796;51.458;7.000;2023-03-16T15:38:34;12.90;99.60
37974;DHT22;23796;51.458;7.000;2023-03-16T15:41:09;12.90;99.40
37974;DHT22;23796;51.458;7.000;2023-03-16T15:43:35;12.90;99.40
37974;DHT22;23796;51.458;7.000;2023-03-16T15:46:04;12.90;99.30
37974;DHT22;23796;51.458;7.000;2023-03-16T15:48:31;12.80;99.30
37974;DHT22;23796;51.458;7.000;2023-03-16T15:51:18;12.80;99.40
37974;DHT22;23796;51.458;7.000;2023-03-16T15:53:50;12.80;99.30
37974;DHT22;23796;51.458;7.000;2023-03-16T15:56:20;12.80;99.20
37974;DHT22;23796;51.458;7.000;2023-03-16T15:58:48;12.80;99.20
37974;DHT22;23796;51.458;7.000;2023-03-16T16:03:43;12.70;99.10
37974;DHT22;23796;51.458;7.000;2023-03-16T16:06:09;12.60;98.80
37974;DHT22;23796;51.458;7.000;2023-03-16T16:08:38;12.60;98.90
37974;DHT22;23796;51.458;7.000;2023-03-16T16:11:09;12.50;98.90
37974;DHT22;23796;51.458;7.000;2023-03-16T16:13:37;12.60;98.80
37974;DHT22;23796;51.458;7.000;2023-03-16T16:16:03;12.50;98.60
37974;DHT22;23796;51.458;7.000;2023-03-16T16:18:34;12.50;98.70
37974;DHT22;23796;51.458;7.000;2023-03-16T16:21:03;12.40;98.40
37974;DHT22;23796;51.458;7.000;2023-03-16T16:23:30;12.40;98.60
37974;DHT22;23796;51.458;7.000;2023-03-16T16:26:02;12.30;98.60
37974;DHT22;23796;51.458;7.000;2023-03-16T16:28:31;12.30;98.70
37974;DHT22;23796;51.458;7.000;2023-03-16T16:30:57;12.30;98.60
37974;DHT22;23796;51.458;7.000;2023-03-16T16:35:53;12.30;98.70
37974;DHT22;23796;51.458;7.000;2023-03-16T16:38:22;12.20;98.30
37974;DHT22;23796;51.458;7.000;2023-03-16T16:40:49;12.10;98.40
37974;DHT22;23796;51.458;7.000;2023-03-16T16:43:41;12.00;98.50
37974;DHT22;23796;51.458;7.000;2023-03-16T16:49:21;11.90;98.60
37974;DHT22;23796;51.458;7.000;2023-03-16T16:51:52;11.80;98.70
37974;DHT22;23796;51.458;7.000;2023-03-16T16:54:20;11.80;98.80
37974;DHT22;23796;51.458;7.000;2023-03-16T16:56:47;11.70;99.20
37974;DHT22;23796;51.458;7.000;2023-03-16T16:59:19;11.70;99.10
37974;DHT22;23796;51.458;7.000;2023-03-16T17:01:46;11.60;99.10
37974;DHT22;23796;51.458;7.000;2023-03-16T17:04:19;11.60;99.30
37974;DHT22;23796;51.458;7.000;2023-03-16T17:06:47;11.50;99.40
37974;DHT22;23796;51.458;7.000;2023-03-16T17:09:15;11.50;99.60
37974;DHT22;23796;51.458;7.000;2023-03-16T17:11:43;11.40;99.70
37974;DHT22;23796;51.458;7.000;2023-03-16T17:14:14;11.40;99.80
37974;DHT22;23796;51.458;7.000;2023-03-16T17:16:40;11.40;99.90
37974;DHT22;23796;51.458;7.000;2023-03-16T17:19:35;11.30;99.90
37974;DHT22;23796;51.458;7.000;2023-03-16T17:22:00;11.20;99.90
37974;DHT22;23796;51.458;7.000;2023-03-16T17:24:26;11.20;99.90
37974;DHT22;23796;51.458;7.000;2023-03-16T17:26:56;11.10;99.90
37974;DHT22;23796;51.458;7.000;2023-03-16T17:29:29;11.10;99.90